createdAt,value
2022-10-20T00:01:03.752Z,20.00
2022-10-20T00:03:30.805Z,20.00
2022-10-20T00:06:08.290Z,20.00
2022-10-20T00:08:35.417Z,20.00
2022-10-20T00:11:02.482Z,20.00
2022-10-20T00:13:29.479Z,20.00
2022-10-20T00:15:56.605Z,20.00
2022-10-20T00:18:23.785Z,20.00
2022-10-20T00:20:51.216Z,20.00
2022-10-20T00:23:18.362Z,20.00
2022-10-20T00:25:45.377Z,20.00
2022-10-20T00:28:12.424Z,20.00
2022-10-20T00:30:39.794Z,20.00
2022-10-20T00:33:06.893Z,20.00
2022-10-20T00:35:37.505Z,19.90
2022-10-20T00:38:04.525Z,20.00
2022-10-20T00:40:31.625Z,19.90
2022-10-20T00:42:58.651Z,19.90
2022-10-20T00:45:26.385Z,19.90
2022-10-20T00:47:58.957Z,19.90
2022-10-20T00:50:27.802Z,19.90
2022-10-20T00:52:55.655Z,19.90
2022-10-20T00:55:24.945Z,19.90
2022-10-20T00:57:52.540Z,19.90
2022-10-20T01:00:19.751Z,19.90
2022-10-20T01:02:46.969Z,19.90
2022-10-20T01:05:14.065Z,19.90
2022-10-20T01:07:41.109Z,19.90
2022-10-20T01:10:08.466Z,19.90
2022-10-20T01:12:57.749Z,19.90
2022-10-20T01:15:51.028Z,19.90
2022-10-20T01:18:24.263Z,19.90
2022-10-20T01:21:06.580Z,19.90
2022-10-20T01:23:36.617Z,19.90
2022-10-20T01:26:06.696Z,19.90
2022-10-20T01:28:42.111Z,19.90
2022-10-20T01:31:17.319Z,19.90
2022-10-20T01:33:49.885Z,19.90
2022-10-20T01:36:21.110Z,19.90
2022-10-20T01:38:54.587Z,19.80
2022-10-20T01:41:21.708Z,19.80
2022-10-20T01:43:49.904Z,19.80
2022-10-20T01:46:18.017Z,19.80
2022-10-20T01:48:46.197Z,19.80
2022-10-20T01:51:13.388Z,19.80
2022-10-20T01:53:40.391Z,19.80
2022-10-20T01:56:12.340Z,19.80
2022-10-20T01:58:54.279Z,19.80
2022-10-20T02:01:24.175Z,19.80
2022-10-20T02:03:55.424Z,19.80
2022-10-20T02:06:31.328Z,19.80
2022-10-20T02:09:04.159Z,19.80
2022-10-20T02:11:40.264Z,19.80
2022-10-20T02:14:09.892Z,19.80
2022-10-20T02:16:39.559Z,19.80
2022-10-20T02:19:07.929Z,19.80
2022-10-20T02:21:34.997Z,19.80
2022-10-20T02:24:04.536Z,19.80
2022-10-20T02:26:32.788Z,19.80
2022-10-20T02:29:14.628Z,19.70
2022-10-20T02:31:42.465Z,19.80
2022-10-20T02:34:09.952Z,19.80
2022-10-20T02:36:38.291Z,19.80
2022-10-20T02:39:05.460Z,19.70
2022-10-20T02:41:32.549Z,19.80
2022-10-20T02:43:59.619Z,19.70
2022-10-20T02:46:26.594Z,19.70
2022-10-20T02:48:53.692Z,19.70
2022-10-20T02:51:20.749Z,19.70
2022-10-20T02:53:48.074Z,19.70
2022-10-20T02:56:15.088Z,19.70
2022-10-20T02:58:42.150Z,19.70
2022-10-20T03:01:09.216Z,19.70
2022-10-20T03:03:36.201Z,19.70
2022-10-20T03:06:07.104Z,19.70
2022-10-20T03:08:34.241Z,19.70
2022-10-20T03:11:01.300Z,19.70
2022-10-20T03:16:00.524Z,19.70
2022-10-20T03:18:27.638Z,19.70
2022-10-20T03:20:54.729Z,19.70
2022-10-20T03:23:21.776Z,19.70
2022-10-20T03:25:48.835Z,19.60
2022-10-20T03:28:16.602Z,19.70
2022-10-20T03:30:43.658Z,19.70
2022-10-20T03:33:10.679Z,19.60
2022-10-20T03:35:37.690Z,19.60
2022-10-20T03:38:04.676Z,19.60
2022-10-20T03:40:31.707Z,19.60
2022-10-20T03:42:58.730Z,19.60
2022-10-20T03:45:25.782Z,19.60
2022-10-20T03:47:52.864Z,19.60
2022-10-20T03:50:19.888Z,19.60
2022-10-20T03:52:50.566Z,19.60
2022-10-20T03:55:18.348Z,19.60
2022-10-20T03:57:45.581Z,19.60
2022-10-20T04:00:12.820Z,19.60
2022-10-20T04:02:42.149Z,19.70
2022-10-20T04:05:10.586Z,19.70
2022-10-20T04:07:37.596Z,19.70
2022-10-20T04:10:04.673Z,19.70
2022-10-20T04:12:31.678Z,19.70
2022-10-20T04:14:58.677Z,19.70
2022-10-20T04:17:25.759Z,19.80
2022-10-20T04:19:52.771Z,19.80
2022-10-20T04:22:19.747Z,19.80
2022-10-20T04:24:46.777Z,19.70
2022-10-20T04:27:13.780Z,19.80
2022-10-20T04:29:40.830Z,19.80
2022-10-20T04:32:07.808Z,19.80
2022-10-20T04:34:36.514Z,19.80
2022-10-20T04:37:03.587Z,19.80
2022-10-20T04:39:30.701Z,19.80
2022-10-20T04:41:57.743Z,19.80
2022-10-20T04:44:24.800Z,19.80
2022-10-20T04:46:53.618Z,19.80
2022-10-20T04:49:20.983Z,19.80
2022-10-20T04:51:48.025Z,19.80
2022-10-20T04:54:15.094Z,19.80
2022-10-20T04:56:42.182Z,19.90
2022-10-20T04:59:12.622Z,19.90
2022-10-20T05:01:40.882Z,19.80
2022-10-20T05:04:08.873Z,19.80
2022-10-20T05:06:35.856Z,19.80
2022-10-20T05:09:04.148Z,19.80
2022-10-20T05:11:31.869Z,19.90
2022-10-20T05:13:58.863Z,19.90
2022-10-20T05:16:25.934Z,19.90
2022-10-20T05:18:53.338Z,19.90
2022-10-20T05:21:22.299Z,19.90
2022-10-20T05:23:49.638Z,19.90
2022-10-20T05:26:17.597Z,19.90
2022-10-20T05:28:48.764Z,19.90
2022-10-20T05:31:16.761Z,19.90
2022-10-20T05:33:45.221Z,19.90
2022-10-20T05:36:16.965Z,19.90
2022-10-20T05:38:46.931Z,19.90
2022-10-20T05:41:15.563Z,19.90
2022-10-20T05:43:42.672Z,19.90
2022-10-20T05:46:09.685Z,19.90
2022-10-20T05:48:42.115Z,19.90
2022-10-20T05:51:15.257Z,19.90
2022-10-20T05:53:43.169Z,19.90
2022-10-20T05:56:14.668Z,19.90
2022-10-20T05:58:42.553Z,19.90
2022-10-20T06:01:18.776Z,19.90
2022-10-20T06:03:56.007Z,19.90
2022-10-20T06:06:27.857Z,19.90
2022-10-20T06:08:55.623Z,19.90
2022-10-20T06:11:23.458Z,19.90
2022-10-20T06:13:52.934Z,19.90
2022-10-20T06:16:21.892Z,19.90
2022-10-20T06:18:49.112Z,19.90
2022-10-20T06:21:17.119Z,19.90
2022-10-20T06:23:44.581Z,19.90
2022-10-20T06:26:13.150Z,19.90
2022-10-20T06:28:40.934Z,19.90
2022-10-20T06:31:15.521Z,19.90
2022-10-20T06:33:42.757Z,19.90
2022-10-20T06:36:09.905Z,19.90
2022-10-20T06:38:38.142Z,19.90
2022-10-20T06:41:06.439Z,19.90
2022-10-20T06:43:33.626Z,19.90
2022-10-20T06:46:05.000Z,19.90
2022-10-20T06:48:32.689Z,19.90
2022-10-20T06:51:00.680Z,19.90
2022-10-20T06:53:28.270Z,19.90
2022-10-20T06:55:59.167Z,19.90
2022-10-20T06:58:26.365Z,19.90
2022-10-20T07:01:00.755Z,19.90
2022-10-20T07:03:31.366Z,19.90
2022-10-20T07:05:59.750Z,19.90
2022-10-20T07:08:27.667Z,19.90
2022-10-20T07:11:12.135Z,19.90
2022-10-20T07:13:39.845Z,19.90
2022-10-20T07:16:08.005Z,19.90
2022-10-20T07:18:35.872Z,19.90
2022-10-20T07:21:04.521Z,19.90
2022-10-20T07:23:32.121Z,19.90
2022-10-20T07:26:02.235Z,19.90
2022-10-20T07:28:29.741Z,19.90
2022-10-20T07:30:56.863Z,19.90
2022-10-20T07:33:23.958Z,19.90
2022-10-20T07:35:51.042Z,19.90
2022-10-20T07:38:18.096Z,19.90
2022-10-20T07:40:45.155Z,19.90
2022-10-20T07:43:12.165Z,19.90
2022-10-20T07:45:39.252Z,19.90
2022-10-20T07:48:07.118Z,19.90
2022-10-20T07:50:34.249Z,19.90
2022-10-20T07:53:01.417Z,19.90
2022-10-20T07:55:43.516Z,19.90
2022-10-20T07:58:10.549Z,19.90
2022-10-20T08:03:05.048Z,19.80
2022-10-20T08:05:32.134Z,19.80
2022-10-20T08:08:00.816Z,19.80
2022-10-20T08:10:27.944Z,19.90
2022-10-20T08:12:54.974Z,20.20
2022-10-20T08:15:21.996Z,20.40
2022-10-20T08:17:49.181Z,20.60
2022-10-20T08:20:18.932Z,20.70
2022-10-20T08:22:46.644Z,21.00
2022-10-20T08:25:14.869Z,21.10
2022-10-20T08:27:41.940Z,21.20
2022-10-20T08:30:23.396Z,21.40
2022-10-20T08:32:52.591Z,21.40
2022-10-20T08:35:21.256Z,21.40
2022-10-20T08:37:48.308Z,21.40
2022-10-20T08:40:23.333Z,21.40
2022-10-20T08:42:50.884Z,21.40
2022-10-20T08:45:20.042Z,21.40
2022-10-20T08:47:47.870Z,21.40
2022-10-20T08:50:17.108Z,21.40
2022-10-20T08:52:45.288Z,21.40
2022-10-20T08:55:29.227Z,21.30
2022-10-20T08:58:04.855Z,21.30
2022-10-20T09:00:32.824Z,21.20
2022-10-20T09:03:11.601Z,21.30
2022-10-20T09:05:40.907Z,21.20
2022-10-20T09:08:08.013Z,21.20
2022-10-20T09:10:36.018Z,21.10
2022-10-20T09:13:17.497Z,21.10
2022-10-20T09:15:44.626Z,21.10
2022-10-20T09:18:13.892Z,21.10
2022-10-20T09:21:01.475Z,21.20
2022-10-20T09:23:40.963Z,21.10
2022-10-20T09:26:37.367Z,21.10
2022-10-20T09:29:13.424Z,21.10
2022-10-20T09:31:44.178Z,21.10
2022-10-20T09:34:30.169Z,21.00
2022-10-20T09:36:59.315Z,20.90
2022-10-20T09:39:27.561Z,20.90
2022-10-20T09:42:05.302Z,20.90
2022-10-20T09:44:33.889Z,20.80
2022-10-20T09:47:01.536Z,20.80
2022-10-20T09:49:33.873Z,20.80
2022-10-20T09:52:02.106Z,20.90
2022-10-20T09:54:29.346Z,20.90
2022-10-20T09:57:06.910Z,20.90
2022-10-20T09:59:36.096Z,20.90
2022-10-20T10:02:15.250Z,20.90
2022-10-20T10:04:43.742Z,20.90
2022-10-20T10:07:32.168Z,20.90
2022-10-20T10:10:08.099Z,21.00
2022-10-20T10:12:36.479Z,20.90
2022-10-20T10:15:08.168Z,20.90
2022-10-20T10:17:37.706Z,20.90
2022-10-20T10:20:13.912Z,20.80
2022-10-20T10:22:41.106Z,20.80
2022-10-20T10:25:14.888Z,20.80
2022-10-20T10:27:56.339Z,20.80
2022-10-20T10:30:31.016Z,20.80
2022-10-20T10:32:58.259Z,20.80
2022-10-20T10:35:39.862Z,20.80
2022-10-20T10:38:09.616Z,20.80
2022-10-20T10:40:55.445Z,20.70
2022-10-20T10:43:24.859Z,20.70
2022-10-20T10:45:55.649Z,20.70
2022-10-20T10:48:31.676Z,20.70
2022-10-20T10:51:00.393Z,20.60
2022-10-20T10:53:28.049Z,20.60
2022-10-20T10:55:55.370Z,20.60
2022-10-20T10:58:34.625Z,20.70
2022-10-20T11:01:07.882Z,20.70
2022-10-20T11:03:40.806Z,20.70
2022-10-20T11:06:10.781Z,20.80
2022-10-20T11:08:56.015Z,20.80
2022-10-20T11:11:55.266Z,20.80
2022-10-20T11:14:22.324Z,20.90
2022-10-20T11:17:15.447Z,21.40
2022-10-20T11:19:42.447Z,21.50
2022-10-20T11:22:20.858Z,21.30
2022-10-20T11:24:50.561Z,21.20
2022-10-20T11:27:24.443Z,21.10
2022-10-20T11:29:55.034Z,21.00
2022-10-20T11:32:22.735Z,21.10
2022-10-20T11:35:05.705Z,21.00
2022-10-20T11:37:38.925Z,21.10
2022-10-20T11:40:08.653Z,21.10
2022-10-20T11:42:46.580Z,21.10
2022-10-20T11:45:22.905Z,21.20
2022-10-20T11:47:52.373Z,21.20
2022-10-20T11:50:19.572Z,21.20
2022-10-20T11:53:01.609Z,21.20
2022-10-20T11:55:35.139Z,21.10
2022-10-20T11:58:08.227Z,21.10
2022-10-20T12:00:38.222Z,21.00
2022-10-20T12:03:08.345Z,21.00
2022-10-20T12:05:53.765Z,21.00
2022-10-20T12:08:33.130Z,20.90
2022-10-20T12:11:12.751Z,20.90
2022-10-20T12:13:39.822Z,20.80
2022-10-20T12:16:06.965Z,20.80
2022-10-20T12:18:35.288Z,20.80
2022-10-20T12:21:04.212Z,20.80
2022-10-20T12:23:43.808Z,20.80
2022-10-20T12:26:29.493Z,20.70
2022-10-20T12:28:57.319Z,20.70
2022-10-20T12:31:25.672Z,20.70
2022-10-20T12:33:53.300Z,20.70
2022-10-20T12:36:29.625Z,20.70
2022-10-20T12:39:11.755Z,20.60
2022-10-20T12:41:45.013Z,20.60
2022-10-20T12:44:16.429Z,20.60
2022-10-20T12:46:51.472Z,20.60
2022-10-20T12:49:23.979Z,20.60
2022-10-20T12:51:53.153Z,20.70
2022-10-20T12:54:20.197Z,20.70
2022-10-20T12:56:47.334Z,20.70
2022-10-20T12:59:38.857Z,20.80
2022-10-20T13:02:08.910Z,20.90
2022-10-20T13:04:52.786Z,21.00
2022-10-20T13:07:38.639Z,21.00
2022-10-20T13:10:24.532Z,21.00
2022-10-20T13:12:51.594Z,21.00
2022-10-20T13:15:19.955Z,21.10
2022-10-20T13:17:56.412Z,21.10
2022-10-20T13:20:29.962Z,21.10
2022-10-20T13:22:57.223Z,21.10
2022-10-20T13:25:36.046Z,21.10
2022-10-20T13:28:12.208Z,21.10
2022-10-20T13:30:54.415Z,21.10
2022-10-20T13:33:34.512Z,21.10
2022-10-20T13:36:14.553Z,21.10
2022-10-20T13:38:44.400Z,21.10
2022-10-20T13:41:30.142Z,21.10
2022-10-20T13:44:08.788Z,21.10
2022-10-20T13:46:52.331Z,21.10
2022-10-20T13:49:41.876Z,21.10
2022-10-20T13:52:16.488Z,21.10
2022-10-20T13:54:45.745Z,21.10
2022-10-20T13:57:21.126Z,21.10
2022-10-20T14:00:08.436Z,21.10
2022-10-20T14:02:36.415Z,21.00
2022-10-20T14:05:05.435Z,21.10
2022-10-20T14:07:36.944Z,21.10
2022-10-20T14:10:04.529Z,21.10
2022-10-20T14:12:31.989Z,21.10
2022-10-20T14:15:02.211Z,21.00
2022-10-20T14:17:29.508Z,20.90
2022-10-20T14:20:17.317Z,20.90
2022-10-20T14:22:44.806Z,20.80
2022-10-20T14:25:12.324Z,20.80
2022-10-20T14:27:39.977Z,20.80
2022-10-20T14:30:07.823Z,20.70
2022-10-20T14:32:38.963Z,20.80
2022-10-20T14:35:16.810Z,20.80
2022-10-20T14:37:51.621Z,20.80
2022-10-20T14:40:26.222Z,20.80
2022-10-20T14:42:57.248Z,20.80
2022-10-20T14:45:26.660Z,20.80
2022-10-20T14:47:55.375Z,20.80
2022-10-20T14:50:27.147Z,20.90
2022-10-20T14:52:54.457Z,20.90
2022-10-20T14:55:35.130Z,20.90
2022-10-20T14:58:03.184Z,20.90
2022-10-20T15:00:34.854Z,20.90
2022-10-20T15:03:06.653Z,21.00
2022-10-20T15:05:41.772Z,21.10
2022-10-20T15:08:17.606Z,21.10
2022-10-20T15:10:44.720Z,21.10
2022-10-20T15:13:41.252Z,21.20
2022-10-20T15:16:28.259Z,21.20
2022-10-20T15:19:14.258Z,21.20
2022-10-20T15:21:41.292Z,21.20
2022-10-20T15:24:08.292Z,21.20
2022-10-20T15:26:35.340Z,21.20
2022-10-20T15:29:02.383Z,21.10
2022-10-20T15:31:30.027Z,21.10
2022-10-20T15:33:57.879Z,21.10
2022-10-20T15:36:29.852Z,21.10
2022-10-20T15:38:57.408Z,21.10
2022-10-20T15:41:25.766Z,21.10
2022-10-20T15:43:52.939Z,21.10
2022-10-20T15:46:20.288Z,21.00
2022-10-20T15:48:47.689Z,21.00
2022-10-20T15:51:26.139Z,21.00
2022-10-20T15:53:53.435Z,21.00
2022-10-20T15:56:20.609Z,21.00
2022-10-20T15:58:49.897Z,20.90
2022-10-20T16:01:17.554Z,20.90
2022-10-20T16:03:45.515Z,20.90
2022-10-20T16:06:14.004Z,20.90
2022-10-20T16:08:42.034Z,20.80
2022-10-20T16:11:09.761Z,20.80
2022-10-20T16:13:38.404Z,20.80
2022-10-20T16:16:06.281Z,20.80
2022-10-20T16:18:33.814Z,20.80
2022-10-20T16:21:01.175Z,20.80
2022-10-20T16:23:28.438Z,20.80
2022-10-20T16:25:55.570Z,20.80
2022-10-20T16:28:22.717Z,20.90
2022-10-20T16:30:49.800Z,20.90
2022-10-20T16:33:16.900Z,20.90
2022-10-20T16:35:44.307Z,20.80
2022-10-20T16:38:11.463Z,20.80
2022-10-20T16:40:38.571Z,20.90
2022-10-20T16:43:05.659Z,20.90
2022-10-20T16:45:32.685Z,21.00
2022-10-20T16:47:59.752Z,21.00
2022-10-20T16:50:26.897Z,21.00
2022-10-20T16:52:53.979Z,21.00
2022-10-20T16:55:21.076Z,21.10
2022-10-20T16:57:48.111Z,21.10
2022-10-20T17:00:15.532Z,21.10
2022-10-20T17:02:44.796Z,20.90
2022-10-20T17:05:11.810Z,20.80
2022-10-20T17:07:39.396Z,20.90
2022-10-20T17:10:07.103Z,21.00
2022-10-20T17:12:34.208Z,21.10
2022-10-20T17:15:01.346Z,21.10
2022-10-20T17:17:28.477Z,21.10
2022-10-20T17:19:55.674Z,21.20
2022-10-20T17:22:22.737Z,21.20
2022-10-20T17:24:49.785Z,20.90
2022-10-20T17:27:16.815Z,20.40
2022-10-20T17:29:43.882Z,20.40
2022-10-20T17:32:14.379Z,20.60
2022-10-20T17:34:44.529Z,20.70
2022-10-20T17:37:11.575Z,20.80
2022-10-20T17:39:38.678Z,20.80
2022-10-20T17:42:05.727Z,20.90
2022-10-20T17:44:32.792Z,20.90
2022-10-20T17:47:01.404Z,20.90
2022-10-20T17:49:28.506Z,20.90
2022-10-20T17:51:56.242Z,20.90
2022-10-20T17:54:23.312Z,20.90
2022-10-20T17:56:52.386Z,20.90
2022-10-20T17:59:20.582Z,20.90
2022-10-20T18:01:47.809Z,20.90
2022-10-20T18:04:16.331Z,20.80
2022-10-20T18:06:43.699Z,20.80
2022-10-20T18:09:12.589Z,20.70
2022-10-20T18:11:41.329Z,20.70
2022-10-20T18:14:08.473Z,20.80
2022-10-20T18:16:36.836Z,20.80
2022-10-20T18:19:04.242Z,20.90
2022-10-20T18:21:31.688Z,21.00
2022-10-20T18:24:02.037Z,21.00
2022-10-20T18:26:30.113Z,21.00
2022-10-20T18:28:57.928Z,21.00
2022-10-20T18:31:25.673Z,21.10
2022-10-20T18:33:57.173Z,21.10
2022-10-20T18:36:25.034Z,21.10
2022-10-20T18:38:53.483Z,21.10
2022-10-20T18:41:24.894Z,21.10
2022-10-20T18:43:58.110Z,21.10
2022-10-20T18:46:26.259Z,21.10
2022-10-20T18:48:53.778Z,21.10
2022-10-20T18:51:21.367Z,21.10
2022-10-20T18:53:51.569Z,21.10
2022-10-20T18:56:19.618Z,21.10
2022-10-20T18:58:54.121Z,21.10
2022-10-20T19:01:22.462Z,21.10
2022-10-20T19:03:50.294Z,21.10
2022-10-20T19:06:20.013Z,21.10
2022-10-20T19:08:52.447Z,21.00
2022-10-20T19:11:20.456Z,21.00
2022-10-20T19:13:47.493Z,21.00
2022-10-20T19:16:17.126Z,21.00
2022-10-20T19:18:45.405Z,20.90
2022-10-20T19:21:12.489Z,20.90
2022-10-20T19:23:41.063Z,20.90
2022-10-20T19:26:14.823Z,20.90
2022-10-20T19:29:01.562Z,20.90
2022-10-20T19:31:28.684Z,20.90
2022-10-20T19:33:58.085Z,20.80
2022-10-20T19:36:25.856Z,20.80
2022-10-20T19:38:53.072Z,20.80
2022-10-20T19:41:20.290Z,20.80
2022-10-20T19:43:47.460Z,20.80
2022-10-20T19:46:15.770Z,20.80
2022-10-20T19:48:43.562Z,20.70
2022-10-20T19:51:10.703Z,20.70
2022-10-20T19:53:38.527Z,20.80
2022-10-20T19:56:06.266Z,20.70
2022-10-20T19:58:34.895Z,20.70
2022-10-20T20:01:02.323Z,20.70
2022-10-20T20:03:29.410Z,20.70
2022-10-20T20:06:00.138Z,20.70
2022-10-20T20:08:27.541Z,20.70
2022-10-20T20:10:55.660Z,20.70
2022-10-20T20:13:23.946Z,20.70
2022-10-20T20:15:51.394Z,20.70
2022-10-20T20:18:18.762Z,20.70
2022-10-20T20:20:47.139Z,20.60
2022-10-20T20:23:14.957Z,20.60
2022-10-20T20:25:43.290Z,20.60
2022-10-20T20:28:10.619Z,20.60
2022-10-20T20:30:37.692Z,20.60
2022-10-20T20:33:04.830Z,20.60
2022-10-20T20:35:31.901Z,20.50
2022-10-20T20:37:58.917Z,20.60
2022-10-20T20:40:25.965Z,20.50
2022-10-20T20:42:53.213Z,20.50
2022-10-20T20:45:20.363Z,20.50
2022-10-20T20:47:47.920Z,20.50
2022-10-20T20:50:14.964Z,20.50
2022-10-20T20:52:42.049Z,20.50
2022-10-20T20:55:09.163Z,20.50
2022-10-20T20:57:36.657Z,20.50
2022-10-20T21:00:04.091Z,20.40
2022-10-20T21:02:31.255Z,20.40
2022-10-20T21:04:58.297Z,20.40
2022-10-20T21:07:25.343Z,20.50
2022-10-20T21:09:52.375Z,20.40
2022-10-20T21:12:19.418Z,20.40
2022-10-20T21:14:47.204Z,20.40
2022-10-20T21:17:14.245Z,20.40
2022-10-20T21:19:41.282Z,20.40
2022-10-20T21:22:08.346Z,20.40
2022-10-20T21:24:36.984Z,20.40
2022-10-20T21:27:04.069Z,20.40
2022-10-20T21:29:31.391Z,20.40
2022-10-20T21:31:58.469Z,20.40
2022-10-20T21:34:25.638Z,20.40
2022-10-20T21:36:52.689Z,20.30
2022-10-20T21:39:19.853Z,20.30
2022-10-20T21:41:48.491Z,20.30
2022-10-20T21:44:15.533Z,20.30
2022-10-20T21:46:50.692Z,20.30
2022-10-20T21:49:19.733Z,20.30
2022-10-20T21:51:52.158Z,20.30
2022-10-20T21:56:49.010Z,20.30
2022-10-20T21:59:16.061Z,20.30
2022-10-20T22:01:43.194Z,20.30
2022-10-20T22:04:10.243Z,20.30
2022-10-20T22:06:37.915Z,20.30
2022-10-20T22:09:05.577Z,20.30
2022-10-20T22:11:34.850Z,20.30
2022-10-20T22:14:01.913Z,20.30
2022-10-20T22:16:30.100Z,20.30
2022-10-20T22:18:58.054Z,20.20
2022-10-20T22:21:25.653Z,20.30
2022-10-20T22:23:53.919Z,20.20
2022-10-20T22:26:21.682Z,20.20
2022-10-20T22:28:50.143Z,20.20
2022-10-20T22:31:18.161Z,20.30
2022-10-20T22:33:45.470Z,20.20
2022-10-20T22:36:12.611Z,20.20
2022-10-20T22:38:39.728Z,20.30
2022-10-20T22:41:06.806Z,20.20
2022-10-20T22:43:33.869Z,20.20
2022-10-20T22:46:00.909Z,20.20
2022-10-20T22:48:27.989Z,20.30
2022-10-20T22:50:55.073Z,20.20
2022-10-20T22:53:23.296Z,20.20
2022-10-20T22:55:50.481Z,20.30
2022-10-20T22:58:17.537Z,20.30
2022-10-20T23:00:44.693Z,20.20
2022-10-20T23:03:11.786Z,20.20
2022-10-20T23:05:38.836Z,20.20
2022-10-20T23:08:06.240Z,20.20
2022-10-20T23:10:33.385Z,20.20
2022-10-20T23:13:00.465Z,20.20
2022-10-20T23:15:27.520Z,20.20
2022-10-20T23:17:54.566Z,20.10
2022-10-20T23:20:21.629Z,20.10
2022-10-20T23:22:48.865Z,20.10
2022-10-20T23:25:16.145Z,20.10
2022-10-20T23:27:43.267Z,20.10
2022-10-20T23:30:10.425Z,20.10
2022-10-20T23:32:37.605Z,20.10
2022-10-20T23:35:04.924Z,20.10
2022-10-20T23:37:32.077Z,20.10
2022-10-20T23:39:59.107Z,20.10
2022-10-20T23:42:26.221Z,20.10
2022-10-20T23:44:53.312Z,20.10
2022-10-20T23:47:20.415Z,20.10
2022-10-20T23:49:47.430Z,20.10
2022-10-20T23:52:14.577Z,20.10
2022-10-20T23:54:41.598Z,20.10
2022-10-20T23:57:08.677Z,20.10
2022-10-20T23:59:36.373Z,20.00
